sensor_id;sensor_type;location;lat;lon;timestamp;P1;durP1;ratioP1;P2;durP2;ratioP2
21798;SDS011;24973;47.178;15.316;2024-02-23T00:00:11;179.80;;;109.97;;
21798;SDS011;24973;47.178;15.316;2024-02-23T00:03:01;190.47;;;116.60;;
21798;SDS011;24973;47.178;15.316;2024-02-23T00:05:50;184.67;;;111.03;;
21798;SDS011;24973;47.178;15.316;2024-02-23T00:08:39;199.87;;;122.77;;
21798;SDS011;24973;47.178;15.316;2024-02-23T00:11:28;185.10;;;112.90;;
21798;SDS011;24973;47.178;15.316;2024-02-23T00:14:20;191.90;;;114.97;;
21798;SDS011;24973;47.178;15.316;2024-02-23T00:17:09;184.17;;;110.90;;
21798;SDS011;24973;47.178;15.316;2024-02-23T00:19:59;190.47;;;113.53;;
21798;SDS011;24973;47.178;15.316;2024-02-23T00:22:48;187.13;;;110.73;;
21798;SDS011;24973;47.178;15.316;2024-02-23T00:25:37;205.00;;;120.37;;
21798;SDS011;24973;47.178;15.316;2024-02-23T00:28:27;194.73;;;116.63;;
21798;SDS011;24973;47.178;15.316;2024-02-23T00:31:17;194.87;;;114.73;;
21798;SDS011;24973;47.178;15.316;2024-02-23T00:34:06;193.60;;;110.70;;
21798;SDS011;24973;47.178;15.316;2024-02-23T00:36:57;203.67;;;116.20;;
21798;SDS011;24973;47.178;15.316;2024-02-23T00:39:46;206.50;;;115.97;;
21798;SDS011;24973;47.178;15.316;2024-02-23T00:42:35;216.00;;;126.33;;
21798;SDS011;24973;47.178;15.316;2024-02-23T00:45:24;206.20;;;116.93;;
21798;SDS011;24973;47.178;15.316;2024-02-23T00:48:15;201.73;;;115.20;;
21798;SDS011;24973;47.178;15.316;2024-02-23T00:51:04;202.10;;;116.13;;
21798;SDS011;24973;47.178;15.316;2024-02-23T00:53:54;215.43;;;122.50;;
21798;SDS011;24973;47.178;15.316;2024-02-23T00:56:43;228.37;;;130.17;;
21798;SDS011;24973;47.178;15.316;2024-02-23T00:59:35;232.73;;;129.80;;
21798;SDS011;24973;47.178;15.316;2024-02-23T01:02:24;205.57;;;115.90;;
21798;SDS011;24973;47.178;15.316;2024-02-23T01:05:14;205.40;;;114.00;;
21798;SDS011;24973;47.178;15.316;2024-02-23T01:08:03;210.70;;;120.63;;
21798;SDS011;24973;47.178;15.316;2024-02-23T01:10:53;211.30;;;117.50;;
21798;SDS011;24973;47.178;15.316;2024-02-23T01:13:42;229.40;;;127.17;;
21798;SDS011;24973;47.178;15.316;2024-02-23T01:16:31;227.40;;;128.23;;
21798;SDS011;24973;47.178;15.316;2024-02-23T01:19:20;216.40;;;119.97;;
21798;SDS011;24973;47.178;15.316;2024-02-23T01:22:11;215.23;;;117.30;;
21798;SDS011;24973;47.178;15.316;2024-02-23T01:25:01;208.53;;;117.97;;
21798;SDS011;24973;47.178;15.316;2024-02-23T01:27:51;217.30;;;119.17;;
21798;SDS011;24973;47.178;15.316;2024-02-23T01:30:40;212.00;;;118.57;;
21798;SDS011;24973;47.178;15.316;2024-02-23T01:33:29;212.40;;;116.30;;
21798;SDS011;24973;47.178;15.316;2024-02-23T01:36:18;210.53;;;112.97;;
21798;SDS011;24973;47.178;15.316;2024-02-23T01:39:08;198.67;;;108.23;;
21798;SDS011;24973;47.178;15.316;2024-02-23T01:41:58;203.77;;;110.60;;
21798;SDS011;24973;47.178;15.316;2024-02-23T01:44:47;199.10;;;108.07;;
21798;SDS011;24973;47.178;15.316;2024-02-23T01:47:36;202.17;;;109.50;;
21798;SDS011;24973;47.178;15.316;2024-02-23T01:50:25;194.33;;;106.17;;
21798;SDS011;24973;47.178;15.316;2024-02-23T01:53:15;193.53;;;101.63;;
21798;SDS011;24973;47.178;15.316;2024-02-23T01:56:07;194.33;;;99.10;;
21798;SDS011;24973;47.178;15.316;2024-02-23T01:58:57;220.97;;;108.07;;
21798;SDS011;24973;47.178;15.316;2024-02-23T02:01:46;219.17;;;110.10;;
21798;SDS011;24973;47.178;15.316;2024-02-23T02:04:35;209.13;;;104.73;;
21798;SDS011;24973;47.178;15.316;2024-02-23T02:07:24;203.40;;;100.17;;
21798;SDS011;24973;47.178;15.316;2024-02-23T02:10:13;202.97;;;100.50;;
21798;SDS011;24973;47.178;15.316;2024-02-23T02:13:04;208.73;;;101.90;;
21798;SDS011;24973;47.178;15.316;2024-02-23T02:15:53;218.80;;;106.93;;
21798;SDS011;24973;47.178;15.316;2024-02-23T02:18:42;217.37;;;106.37;;
21798;SDS011;24973;47.178;15.316;2024-02-23T02:21:33;220.70;;;107.70;;
21798;SDS011;24973;47.178;15.316;2024-02-23T02:24:22;233.77;;;112.83;;
21798;SDS011;24973;47.178;15.316;2024-02-23T02:27:11;214.60;;;107.63;;
21798;SDS011;24973;47.178;15.316;2024-02-23T02:30:02;206.07;;;99.20;;
21798;SDS011;24973;47.178;15.316;2024-02-23T02:32:51;210.03;;;99.83;;
21798;SDS011;24973;47.178;15.316;2024-02-23T02:35:40;226.53;;;106.70;;
21798;SDS011;24973;47.178;15.316;2024-02-23T02:38:29;213.53;;;103.40;;
21798;SDS011;24973;47.178;15.316;2024-02-23T02:41:20;213.07;;;100.87;;
21798;SDS011;24973;47.178;15.316;2024-02-23T02:44:11;233.30;;;111.73;;
21798;SDS011;24973;47.178;15.316;2024-02-23T02:47:02;226.57;;;107.47;;
21798;SDS011;24973;47.178;15.316;2024-02-23T02:49:51;223.70;;;103.67;;
21798;SDS011;24973;47.178;15.316;2024-02-23T02:52:40;231.10;;;105.60;;
21798;SDS011;24973;47.178;15.316;2024-02-23T02:55:29;222.40;;;100.83;;
21798;SDS011;24973;47.178;15.316;2024-02-23T02:58:18;224.73;;;97.60;;
21798;SDS011;24973;47.178;15.316;2024-02-23T03:01:07;227.03;;;99.13;;
21798;SDS011;24973;47.178;15.316;2024-02-23T03:03:58;235.50;;;102.73;;
21798;SDS011;24973;47.178;15.316;2024-02-23T03:06:47;244.57;;;106.47;;
21798;SDS011;24973;47.178;15.316;2024-02-23T03:09:36;259.00;;;110.50;;
21798;SDS011;24973;47.178;15.316;2024-02-23T03:12:25;238.83;;;97.10;;
21798;SDS011;24973;47.178;15.316;2024-02-23T03:15:14;252.43;;;103.07;;
21798;SDS011;24973;47.178;15.316;2024-02-23T03:18:04;246.20;;;96.27;;
21798;SDS011;24973;47.178;15.316;2024-02-23T03:20:57;263.77;;;100.97;;
21798;SDS011;24973;47.178;15.316;2024-02-23T03:23:46;290.07;;;108.03;;
21798;SDS011;24973;47.178;15.316;2024-02-23T03:26:35;298.23;;;106.57;;
21798;SDS011;24973;47.178;15.316;2024-02-23T03:29:24;285.40;;;99.67;;
21798;SDS011;24973;47.178;15.316;2024-02-23T03:32:15;283.27;;;98.07;;
21798;SDS011;24973;47.178;15.316;2024-02-23T03:35:05;291.73;;;98.87;;
21798;SDS011;24973;47.178;15.316;2024-02-23T03:37:57;299.07;;;97.30;;
21798;SDS011;24973;47.178;15.316;2024-02-23T03:40:46;316.97;;;100.30;;
21798;SDS011;24973;47.178;15.316;2024-02-23T03:43:35;339.00;;;102.40;;
21798;SDS011;24973;47.178;15.316;2024-02-23T03:46:25;342.60;;;94.37;;
21798;SDS011;24973;47.178;15.316;2024-02-23T03:49:14;347.13;;;93.20;;
21798;SDS011;24973;47.178;15.316;2024-02-23T03:52:03;350.67;;;107.17;;
21798;SDS011;24973;47.178;15.316;2024-02-23T03:54:54;350.27;;;104.30;;
21798;SDS011;24973;47.178;15.316;2024-02-23T03:57:43;353.30;;;99.70;;
21798;SDS011;24973;47.178;15.316;2024-02-23T04:00:33;348.10;;;95.35;;
21798;SDS011;24973;47.178;15.316;2024-02-23T04:03:22;340.30;;;92.23;;
21798;SDS011;24973;47.178;15.316;2024-02-23T04:06:11;343.10;;;104.20;;
21798;SDS011;24973;47.178;15.316;2024-02-23T04:09:00;352.17;;;103.47;;
21798;SDS011;24973;47.178;15.316;2024-02-23T04:11:53;346.33;;;99.27;;
21798;SDS011;24973;47.178;15.316;2024-02-23T04:14:42;360.60;;;101.70;;
21798;SDS011;24973;47.178;15.316;2024-02-23T04:17:31;343.93;;;91.37;;
21798;SDS011;24973;47.178;15.316;2024-02-23T04:20:20;342.23;;;92.27;;
21798;SDS011;24973;47.178;15.316;2024-02-23T04:23:09;340.57;;;90.40;;
21798;SDS011;24973;47.178;15.316;2024-02-23T04:25:58;339.83;;;89.07;;
21798;SDS011;24973;47.178;15.316;2024-02-23T04:28:49;365.13;;;105.20;;
21798;SDS011;24973;47.178;15.316;2024-02-23T04:31:38;355.33;;;98.40;;
21798;SDS011;24973;47.178;15.316;2024-02-23T04:34:27;346.30;;;93.13;;
21798;SDS011;24973;47.178;15.316;2024-02-23T04:37:16;341.90;;;91.70;;
21798;SDS011;24973;47.178;15.316;2024-02-23T04:40:06;343.87;;;91.27;;
21798;SDS011;24973;47.178;15.316;2024-02-23T04:42:56;351.63;;;94.07;;
21798;SDS011;24973;47.178;15.316;2024-02-23T04:45:46;352.33;;;97.70;;
21798;SDS011;24973;47.178;15.316;2024-02-23T04:48:35;359.83;;;100.80;;
21798;SDS011;24973;47.178;15.316;2024-02-23T04:51:24;343.07;;;90.40;;
21798;SDS011;24973;47.178;15.316;2024-02-23T04:54:13;357.00;;;99.07;;
21798;SDS011;24973;47.178;15.316;2024-02-23T04:57:03;344.80;;;91.73;;
21798;SDS011;24973;47.178;15.316;2024-02-23T04:59:52;348.10;;;93.63;;
21798;SDS011;24973;47.178;15.316;2024-02-23T05:02:42;352.17;;;94.67;;
21798;SDS011;24973;47.178;15.316;2024-02-23T05:05:31;337.57;;;87.63;;
21798;SDS011;24973;47.178;15.316;2024-02-23T05:08:20;347.53;;;91.97;;
21798;SDS011;24973;47.178;15.316;2024-02-23T05:11:10;340.60;;;87.20;;
21798;SDS011;24973;47.178;15.316;2024-02-23T05:14:02;355.30;;;94.80;;
21798;SDS011;24973;47.178;15.316;2024-02-23T05:16:51;342.30;;;88.70;;
21798;SDS011;24973;47.178;15.316;2024-02-23T05:19:44;367.27;;;104.83;;
21798;SDS011;24973;47.178;15.316;2024-02-23T05:22:34;349.87;;;94.97;;
21798;SDS011;24973;47.178;15.316;2024-02-23T05:25:23;345.57;;;98.50;;
21798;SDS011;24973;47.178;15.316;2024-02-23T05:28:12;339.07;;;94.93;;
21798;SDS011;24973;47.178;15.316;2024-02-23T05:31:02;347.20;;;106.87;;
21798;SDS011;24973;47.178;15.316;2024-02-23T05:33:51;352.90;;;102.10;;
21798;SDS011;24973;47.178;15.316;2024-02-23T05:36:42;353.50;;;100.97;;
21798;SDS011;24973;47.178;15.316;2024-02-23T05:39:32;356.20;;;97.20;;
21798;SDS011;24973;47.178;15.316;2024-02-23T05:42:21;342.60;;;89.07;;
21798;SDS011;24973;47.178;15.316;2024-02-23T05:45:10;348.90;;;92.40;;
21798;SDS011;24973;47.178;15.316;2024-02-23T05:47:59;347.60;;;100.47;;
21798;SDS011;24973;47.178;15.316;2024-02-23T05:50:48;355.30;;;104.03;;
21798;SDS011;24973;47.178;15.316;2024-02-23T05:53:39;354.50;;;100.90;;
21798;SDS011;24973;47.178;15.316;2024-02-23T05:56:28;344.17;;;90.33;;
21798;SDS011;24973;47.178;15.316;2024-02-23T05:59:18;340.27;;;88.07;;
21798;SDS011;24973;47.178;15.316;2024-02-23T06:02:07;347.07;;;93.60;;
21798;SDS011;24973;47.178;15.316;2024-02-23T06:04:56;341.67;;;93.80;;
21798;SDS011;24973;47.178;15.316;2024-02-23T06:07:45;351.73;;;95.67;;
21798;SDS011;24973;47.178;15.316;2024-02-23T06:10:35;353.07;;;100.47;;
21798;SDS011;24973;47.178;15.316;2024-02-23T06:13:25;342.53;;;88.90;;
21798;SDS011;24973;47.178;15.316;2024-02-23T06:16:14;346.97;;;90.87;;
21798;SDS011;24973;47.178;15.316;2024-02-23T06:19:03;348.90;;;93.33;;
21798;SDS011;24973;47.178;15.316;2024-02-23T06:21:52;341.07;;;86.20;;
21798;SDS011;24973;47.178;15.316;2024-02-23T06:24:41;350.17;;;91.30;;
21798;SDS011;24973;47.178;15.316;2024-02-23T06:27:31;350.00;;;97.83;;
21798;SDS011;24973;47.178;15.316;2024-02-23T06:30:21;340.67;;;89.40;;
21798;SDS011;24973;47.178;15.316;2024-02-23T06:33:10;491.67;;;200.93;;
21798;SDS011;24973;47.178;15.316;2024-02-23T06:35:59;424.40;;;151.17;;
21798;SDS011;24973;47.178;15.316;2024-02-23T06:38:48;491.63;;;198.63;;
21798;SDS011;24973;47.178;15.316;2024-02-23T06:41:37;415.03;;;130.70;;
21798;SDS011;24973;47.178;15.316;2024-02-23T06:44:29;491.83;;;196.23;;
21798;SDS011;24973;47.178;15.316;2024-02-23T06:47:18;417.83;;;134.70;;
21798;SDS011;24973;47.178;15.316;2024-02-23T06:50:08;485.33;;;187.27;;
21798;SDS011;24973;47.178;15.316;2024-02-23T06:52:57;344.60;;;88.30;;
21798;SDS011;24973;47.178;15.316;2024-02-23T06:55:47;418.27;;;137.53;;
21798;SDS011;24973;47.178;15.316;2024-02-23T06:58:36;355.37;;;101.83;;
21798;SDS011;24973;47.178;15.316;2024-02-23T07:01:27;393.43;;;115.53;;
21798;SDS011;24973;47.178;15.316;2024-02-23T07:04:17;508.47;;;209.50;;
21798;SDS011;24973;47.178;15.316;2024-02-23T07:07:06;518.47;;;207.53;;
21798;SDS011;24973;47.178;15.316;2024-02-23T07:09:56;449.20;;;166.17;;
21798;SDS011;24973;47.178;15.316;2024-02-23T07:12:45;492.93;;;192.83;;
21798;SDS011;24973;47.178;15.316;2024-02-23T07:15:34;406.67;;;133.77;;
21798;SDS011;24973;47.178;15.316;2024-02-23T07:18:25;511.60;;;234.97;;
21798;SDS011;24973;47.178;15.316;2024-02-23T07:21:17;338.83;;;88.20;;
21798;SDS011;24973;47.178;15.316;2024-02-23T07:24:06;343.23;;;91.47;;
21798;SDS011;24973;47.178;15.316;2024-02-23T07:26:55;337.77;;;106.03;;
21798;SDS011;24973;47.178;15.316;2024-02-23T07:29:45;352.80;;;98.30;;
21798;SDS011;24973;47.178;15.316;2024-02-23T07:32:34;340.77;;;92.67;;
21798;SDS011;24973;47.178;15.316;2024-02-23T07:35:25;334.03;;;93.50;;
21798;SDS011;24973;47.178;15.316;2024-02-23T07:38:14;347.27;;;90.40;;
21798;SDS011;24973;47.178;15.316;2024-02-23T07:41:04;351.07;;;100.07;;
21798;SDS011;24973;47.178;15.316;2024-02-23T07:43:53;352.93;;;112.17;;
21798;SDS011;24973;47.178;15.316;2024-02-23T07:46:43;361.20;;;103.93;;
21798;SDS011;24973;47.178;15.316;2024-02-23T07:49:32;356.03;;;96.17;;
21798;SDS011;24973;47.178;15.316;2024-02-23T07:52:22;343.47;;;88.33;;
21798;SDS011;24973;47.178;15.316;2024-02-23T07:55:11;343.47;;;99.13;;
21798;SDS011;24973;47.178;15.316;2024-02-23T07:58:02;337.53;;;90.17;;
21798;SDS011;24973;47.178;15.316;2024-02-23T08:00:51;356.77;;;97.73;;
21798;SDS011;24973;47.178;15.316;2024-02-23T08:03:40;361.67;;;109.20;;
21798;SDS011;24973;47.178;15.316;2024-02-23T08:06:30;341.53;;;86.80;;
21798;SDS011;24973;47.178;15.316;2024-02-23T08:09:20;350.13;;;113.97;;
21798;SDS011;24973;47.178;15.316;2024-02-23T08:12:10;339.20;;;88.30;;
21798;SDS011;24973;47.178;15.316;2024-02-23T08:15:00;349.97;;;113.87;;
21798;SDS011;24973;47.178;15.316;2024-02-23T08:17:50;364.13;;;115.90;;
21798;SDS011;24973;47.178;15.316;2024-02-23T08:20:39;276.13;;;97.43;;
21798;SDS011;24973;47.178;15.316;2024-02-23T08:23:28;270.97;;;92.40;;
21798;SDS011;24973;47.178;15.316;2024-02-23T08:26:19;283.80;;;94.27;;
21798;SDS011;24973;47.178;15.316;2024-02-23T08:29:08;295.50;;;90.97;;
21798;SDS011;24973;47.178;15.316;2024-02-23T08:31:58;313.23;;;93.60;;
21798;SDS011;24973;47.178;15.316;2024-02-23T08:34:47;316.20;;;97.87;;
21798;SDS011;24973;47.178;15.316;2024-02-23T08:37:37;313.43;;;89.23;;
21798;SDS011;24973;47.178;15.316;2024-02-23T08:40:26;334.97;;;91.57;;
21798;SDS011;24973;47.178;15.316;2024-02-23T08:43:16;343.23;;;93.93;;
21798;SDS011;24973;47.178;15.316;2024-02-23T08:46:06;347.30;;;100.13;;
21798;SDS011;24973;47.178;15.316;2024-02-23T08:48:55;355.77;;;112.60;;
21798;SDS011;24973;47.178;15.316;2024-02-23T08:51:45;328.27;;;99.60;;
21798;SDS011;24973;47.178;15.316;2024-02-23T08:54:34;320.33;;;91.70;;
21798;SDS011;24973;47.178;15.316;2024-02-23T08:57:24;320.37;;;92.70;;
21798;SDS011;24973;47.178;15.316;2024-02-23T09:00:15;320.87;;;90.77;;
21798;SDS011;24973;47.178;15.316;2024-02-23T09:03:05;313.83;;;89.77;;
21798;SDS011;24973;47.178;15.316;2024-02-23T09:05:54;333.80;;;96.23;;
21798;SDS011;24973;47.178;15.316;2024-02-23T09:08:43;346.10;;;102.23;;
21798;SDS011;24973;47.178;15.316;2024-02-23T09:11:32;327.47;;;90.03;;
21798;SDS011;24973;47.178;15.316;2024-02-23T09:14:22;342.10;;;97.20;;
21798;SDS011;24973;47.178;15.316;2024-02-23T09:17:13;328.40;;;88.50;;
21798;SDS011;24973;47.178;15.316;2024-02-23T09:20:03;344.47;;;93.53;;
21798;SDS011;24973;47.178;15.316;2024-02-23T09:22:54;367.20;;;125.37;;
21798;SDS011;24973;47.178;15.316;2024-02-23T09:25:43;353.57;;;99.53;;
21798;SDS011;24973;47.178;15.316;2024-02-23T09:28:32;342.80;;;113.37;;
21798;SDS011;24973;47.178;15.316;2024-02-23T09:31:21;348.47;;;96.80;;
21798;SDS011;24973;47.178;15.316;2024-02-23T09:34:12;350.43;;;106.07;;
21798;SDS011;24973;47.178;15.316;2024-02-23T09:37:01;346.57;;;100.63;;
21798;SDS011;24973;47.178;15.316;2024-02-23T09:39:51;363.73;;;102.80;;
21798;SDS011;24973;47.178;15.316;2024-02-23T09:42:40;361.87;;;113.83;;
21798;SDS011;24973;47.178;15.316;2024-02-23T09:45:30;349.37;;;100.43;;
21798;SDS011;24973;47.178;15.316;2024-02-23T09:48:19;343.53;;;94.13;;
21798;SDS011;24973;47.178;15.316;2024-02-23T09:51:11;337.33;;;92.60;;
21798;SDS011;24973;47.178;15.316;2024-02-23T09:54:00;320.50;;;101.80;;
21798;SDS011;24973;47.178;15.316;2024-02-23T09:56:50;320.67;;;101.27;;
21798;SDS011;24973;47.178;15.316;2024-02-23T09:59:40;329.73;;;107.97;;
21798;SDS011;24973;47.178;15.316;2024-02-23T10:02:29;305.83;;;95.17;;
21798;SDS011;24973;47.178;15.316;2024-02-23T10:05:18;303.47;;;95.67;;
21798;SDS011;24973;47.178;15.316;2024-02-23T10:08:09;320.63;;;96.63;;
21798;SDS011;24973;47.178;15.316;2024-02-23T10:11:00;339.13;;;94.90;;
21798;SDS011;24973;47.178;15.316;2024-02-23T10:13:49;356.37;;;97.83;;
21798;SDS011;24973;47.178;15.316;2024-02-23T10:16:39;355.83;;;98.50;;
21798;SDS011;24973;47.178;15.316;2024-02-23T10:19:28;348.90;;;94.93;;
21798;SDS011;24973;47.178;15.316;2024-02-23T10:22:18;345.87;;;92.83;;
21798;SDS011;24973;47.178;15.316;2024-02-23T10:25:09;343.47;;;93.10;;
21798;SDS011;24973;47.178;15.316;2024-02-23T10:27:58;343.30;;;92.47;;
21798;SDS011;24973;47.178;15.316;2024-02-23T10:30:49;346.97;;;90.53;;
21798;SDS011;24973;47.178;15.316;2024-02-23T10:33:38;350.23;;;95.73;;
21798;SDS011;24973;47.178;15.316;2024-02-23T10:36:28;347.53;;;93.57;;
21798;SDS011;24973;47.178;15.316;2024-02-23T10:39:19;347.83;;;94.43;;
21798;SDS011;24973;47.178;15.316;2024-02-23T10:42:11;349.27;;;97.20;;
21798;SDS011;24973;47.178;15.316;2024-02-23T10:45:03;358.43;;;132.97;;
21798;SDS011;24973;47.178;15.316;2024-02-23T10:47:53;307.00;;;99.93;;
21798;SDS011;24973;47.178;15.316;2024-02-23T10:50:44;309.17;;;100.40;;
21798;SDS011;24973;47.178;15.316;2024-02-23T10:53:34;315.67;;;99.10;;
21798;SDS011;24973;47.178;15.316;2024-02-23T10:56:23;310.90;;;93.23;;
21798;SDS011;24973;47.178;15.316;2024-02-23T10:59:14;309.40;;;94.70;;
21798;SDS011;24973;47.178;15.316;2024-02-23T11:02:05;312.27;;;95.73;;
21798;SDS011;24973;47.178;15.316;2024-02-23T11:04:55;345.03;;;100.27;;
21798;SDS011;24973;47.178;15.316;2024-02-23T11:07:45;355.17;;;109.27;;
21798;SDS011;24973;47.178;15.316;2024-02-23T11:10:41;331.93;;;93.20;;
21798;SDS011;24973;47.178;15.316;2024-02-23T11:13:30;342.50;;;92.73;;
21798;SDS011;24973;47.178;15.316;2024-02-23T11:16:24;344.67;;;92.37;;
21798;SDS011;24973;47.178;15.316;2024-02-23T11:19:14;338.57;;;89.60;;
21798;SDS011;24973;47.178;15.316;2024-02-23T11:22:04;343.63;;;90.97;;
21798;SDS011;24973;47.178;15.316;2024-02-23T11:24:59;339.57;;;91.90;;
21798;SDS011;24973;47.178;15.316;2024-02-23T11:27:49;353.40;;;94.73;;
21798;SDS011;24973;47.178;15.316;2024-02-23T11:30:38;347.43;;;105.37;;
21798;SDS011;24973;47.178;15.316;2024-02-23T11:33:36;349.57;;;104.00;;
21798;SDS011;24973;47.178;15.316;2024-02-23T11:36:27;360.50;;;135.97;;
21798;SDS011;24973;47.178;15.316;2024-02-23T11:39:17;342.87;;;96.60;;
21798;SDS011;24973;47.178;15.316;2024-02-23T11:42:07;344.30;;;98.23;;
21798;SDS011;24973;47.178;15.316;2024-02-23T11:44:57;346.57;;;99.57;;
21798;SDS011;24973;47.178;15.316;2024-02-23T11:47:48;356.93;;;104.70;;
21798;SDS011;24973;47.178;15.316;2024-02-23T11:50:38;345.60;;;95.63;;
21798;SDS011;24973;47.178;15.316;2024-02-23T11:53:27;348.17;;;98.17;;
21798;SDS011;24973;47.178;15.316;2024-02-23T11:56:18;348.00;;;104.10;;
21798;SDS011;24973;47.178;15.316;2024-02-23T11:59:07;352.80;;;116.83;;
21798;SDS011;24973;47.178;15.316;2024-02-23T12:01:57;362.57;;;139.90;;
21798;SDS011;24973;47.178;15.316;2024-02-23T12:04:47;353.97;;;110.17;;
21798;SDS011;24973;47.178;15.316;2024-02-23T12:07:37;345.73;;;101.10;;
21798;SDS011;24973;47.178;15.316;2024-02-23T12:10:26;351.90;;;98.60;;
21798;SDS011;24973;47.178;15.316;2024-02-23T12:13:16;343.20;;;95.83;;
21798;SDS011;24973;47.178;15.316;2024-02-23T12:16:06;342.63;;;91.37;;
21798;SDS011;24973;47.178;15.316;2024-02-23T12:18:56;365.00;;;104.63;;
21798;SDS011;24973;47.178;15.316;2024-02-23T12:21:45;348.90;;;97.30;;
21798;SDS011;24973;47.178;15.316;2024-02-23T12:24:36;343.17;;;105.20;;
21798;SDS011;24973;47.178;15.316;2024-02-23T12:27:25;349.23;;;107.30;;
21798;SDS011;24973;47.178;15.316;2024-02-23T12:30:16;326.67;;;101.43;;
21798;SDS011;24973;47.178;15.316;2024-02-23T12:33:05;345.60;;;97.73;;
21798;SDS011;24973;47.178;15.316;2024-02-23T12:35:55;354.97;;;98.73;;
21798;SDS011;24973;47.178;15.316;2024-02-23T12:38:44;355.15;;;113.15;;
21798;SDS011;24973;47.178;15.316;2024-02-23T12:41:35;345.60;;;99.75;;
21798;SDS011;24973;47.178;15.316;2024-02-23T12:44:24;359.37;;;101.00;;
21798;SDS011;24973;47.178;15.316;2024-02-23T12:47:13;347.00;;;93.60;;
21798;SDS011;24973;47.178;15.316;2024-02-23T12:50:02;327.97;;;99.20;;
21798;SDS011;24973;47.178;15.316;2024-02-23T12:52:52;355.17;;;100.77;;
21798;SDS011;24973;47.178;15.316;2024-02-23T12:55:41;351.43;;;98.77;;
21798;SDS011;24973;47.178;15.316;2024-02-23T12:58:32;343.60;;;109.67;;
21798;SDS011;24973;47.178;15.316;2024-02-23T13:01:21;331.13;;;97.27;;
21798;SDS011;24973;47.178;15.316;2024-02-23T13:04:11;331.97;;;101.27;;
21798;SDS011;24973;47.178;15.316;2024-02-23T13:07:00;322.40;;;102.80;;
21798;SDS011;24973;47.178;15.316;2024-02-23T13:09:49;343.77;;;107.03;;
21798;SDS011;24973;47.178;15.316;2024-02-23T13:12:38;324.90;;;99.00;;
21798;SDS011;24973;47.178;15.316;2024-02-23T13:15:29;322.73;;;98.17;;
21798;SDS011;24973;47.178;15.316;2024-02-23T13:18:18;327.27;;;99.03;;
21798;SDS011;24973;47.178;15.316;2024-02-23T13:21:08;335.67;;;100.13;;
21798;SDS011;24973;47.178;15.316;2024-02-23T13:23:57;339.00;;;102.90;;
21798;SDS011;24973;47.178;15.316;2024-02-23T13:26:46;339.77;;;103.40;;
21798;SDS011;24973;47.178;15.316;2024-02-23T13:29:35;342.60;;;107.27;;
21798;SDS011;24973;47.178;15.316;2024-02-23T13:32:26;320.13;;;101.17;;
21798;SDS011;24973;47.178;15.316;2024-02-23T13:35:15;302.63;;;99.83;;
21798;SDS011;24973;47.178;15.316;2024-02-23T13:38:04;319.50;;;101.97;;
21798;SDS011;24973;47.178;15.316;2024-02-23T13:40:54;318.40;;;109.23;;
21798;SDS011;24973;47.178;15.316;2024-02-23T13:43:43;330.13;;;105.13;;
21798;SDS011;24973;47.178;15.316;2024-02-23T13:46:35;321.20;;;102.90;;
21798;SDS011;24973;47.178;15.316;2024-02-23T13:49:27;326.60;;;102.77;;
21798;SDS011;24973;47.178;15.316;2024-02-23T13:52:16;322.23;;;101.57;;
21798;SDS011;24973;47.178;15.316;2024-02-23T13:55:06;313.50;;;95.97;;
21798;SDS011;24973;47.178;15.316;2024-02-23T13:57:56;332.20;;;108.67;;
21798;SDS011;24973;47.178;15.316;2024-02-23T14:00:45;331.67;;;105.97;;
21798;SDS011;24973;47.178;15.316;2024-02-23T14:03:34;316.27;;;101.07;;
21798;SDS011;24973;47.178;15.316;2024-02-23T14:06:25;305.70;;;100.57;;
21798;SDS011;24973;47.178;15.316;2024-02-23T14:09:14;317.13;;;106.13;;
21798;SDS011;24973;47.178;15.316;2024-02-23T14:12:03;321.40;;;103.07;;
21798;SDS011;24973;47.178;15.316;2024-02-23T14:14:52;315.63;;;99.03;;
21798;SDS011;24973;47.178;15.316;2024-02-23T14:17:42;309.17;;;97.30;;
21798;SDS011;24973;47.178;15.316;2024-02-23T14:20:31;313.83;;;100.43;;
21798;SDS011;24973;47.178;15.316;2024-02-23T14:23:22;313.13;;;100.07;;
21798;SDS011;24973;47.178;15.316;2024-02-23T14:26:11;301.40;;;98.47;;
21798;SDS011;24973;47.178;15.316;2024-02-23T14:29:00;314.27;;;101.70;;
21798;SDS011;24973;47.178;15.316;2024-02-23T14:31:49;313.77;;;104.50;;
21798;SDS011;24973;47.178;15.316;2024-02-23T14:34:38;291.00;;;100.30;;
21798;SDS011;24973;47.178;15.316;2024-02-23T14:37:27;305.40;;;101.03;;
21798;SDS011;24973;47.178;15.316;2024-02-23T14:40:18;312.83;;;99.33;;
21798;SDS011;24973;47.178;15.316;2024-02-23T14:43:07;305.63;;;98.10;;
21798;SDS011;24973;47.178;15.316;2024-02-23T14:45:57;321.37;;;107.20;;
21798;SDS011;24973;47.178;15.316;2024-02-23T14:48:46;319.03;;;104.67;;
21798;SDS011;24973;47.178;15.316;2024-02-23T14:51:35;304.43;;;96.63;;
21798;SDS011;24973;47.178;15.316;2024-02-23T14:54:25;326.83;;;105.80;;
21798;SDS011;24973;47.178;15.316;2024-02-23T14:57:15;303.27;;;99.60;;
21798;SDS011;24973;47.178;15.316;2024-02-23T15:00:05;310.53;;;100.30;;
21798;SDS011;24973;47.178;15.316;2024-02-23T15:02:55;310.33;;;102.23;;
21798;SDS011;24973;47.178;15.316;2024-02-23T15:05:44;326.70;;;105.07;;
21798;SDS011;24973;47.178;15.316;2024-02-23T15:08:33;327.60;;;102.43;;
21798;SDS011;24973;47.178;15.316;2024-02-23T15:11:23;307.97;;;95.13;;
21798;SDS011;24973;47.178;15.316;2024-02-23T15:14:14;323.30;;;100.80;;
21798;SDS011;24973;47.178;15.316;2024-02-23T15:17:03;315.73;;;100.50;;
21798;SDS011;24973;47.178;15.316;2024-02-23T15:19:52;337.83;;;107.43;;
21798;SDS011;24973;47.178;15.316;2024-02-23T15:22:41;314.33;;;94.70;;
21798;SDS011;24973;47.178;15.316;2024-02-23T15:25:33;311.93;;;95.33;;
21798;SDS011;24973;47.178;15.316;2024-02-23T15:28:23;336.43;;;100.23;;
21798;SDS011;24973;47.178;15.316;2024-02-23T15:31:14;324.33;;;95.73;;
21798;SDS011;24973;47.178;15.316;2024-02-23T15:34:03;328.57;;;98.83;;
21798;SDS011;24973;47.178;15.316;2024-02-23T15:36:52;334.53;;;102.07;;
21798;SDS011;24973;47.178;15.316;2024-02-23T15:39:41;356.30;;;99.00;;
21798;SDS011;24973;47.178;15.316;2024-02-23T15:42:31;359.03;;;132.80;;
21798;SDS011;24973;47.178;15.316;2024-02-23T15:45:22;245.40;;;94.47;;
21798;SDS011;24973;47.178;15.316;2024-02-23T15:48:12;282.57;;;91.07;;
21798;SDS011;24973;47.178;15.316;2024-02-23T15:51:02;299.37;;;100.03;;
21798;SDS011;24973;47.178;15.316;2024-02-23T15:53:51;317.73;;;106.73;;
21798;SDS011;24973;47.178;15.316;2024-02-23T15:56:41;296.30;;;96.23;;